sensor_id;sensor_type;location;lat;lon;timestamp;temperature;humidity
8633;DHT22;4354;49.832;10.746;2024-03-02T00:00:57;4.30;99.90
8633;DHT22;4354;49.832;10.746;2024-03-02T00:03:24;4.20;99.90
8633;DHT22;4354;49.832;10.746;2024-03-02T00:05:51;4.20;99.90
8633;DHT22;4354;49.832;10.746;2024-03-02T00:08:27;4.20;99.90
8633;DHT22;4354;49.832;10.746;2024-03-02T00:10:58;4.20;99.90
8633;DHT22;4354;49.832;10.746;2024-03-02T00:13:25;4.20;99.90
8633;DHT22;4354;49.832;10.746;2024-03-02T00:15:56;4.20;99.90
8633;DHT22;4354;49.832;10.746;2024-03-02T00:18:35;4.20;99.90
8633;DHT22;4354;49.832;10.746;2024-03-02T00:21:03;4.10;99.90
8633;DHT22;4354;49.832;10.746;2024-03-02T00:23:33;4.10;99.90
8633;DHT22;4354;49.832;10.746;2024-03-02T00:26:02;4.10;99.90
8633;DHT22;4354;49.832;10.746;2024-03-02T00:28:34;4.10;99.90
8633;DHT22;4354;49.832;10.746;2024-03-02T00:31:09;4.10;99.90
8633;DHT22;4354;49.832;10.746;2024-03-02T00:33:42;4.10;99.90
8633;DHT22;4354;49.832;10.746;2024-03-02T00:36:15;4.10;99.90
8633;DHT22;4354;49.832;10.746;2024-03-02T00:38:47;4.10;99.90
8633;DHT22;4354;49.832;10.746;2024-03-02T00:41:21;4.10;99.90
8633;DHT22;4354;49.832;10.746;2024-03-02T00:44:07;4.20;99.90
8633;DHT22;4354;49.832;10.746;2024-03-02T00:46:39;4.20;99.90
8633;DHT22;4354;49.832;10.746;2024-03-02T00:49:22;4.20;99.90
8633;DHT22;4354;49.832;10.746;2024-03-02T00:51:53;4.20;99.90
8633;DHT22;4354;49.832;10.746;2024-03-02T00:54:22;4.20;99.90
8633;DHT22;4354;49.832;10.746;2024-03-02T00:56:52;4.20;99.90
8633;DHT22;4354;49.832;10.746;2024-03-02T00:59:19;4.20;99.90
8633;DHT22;4354;49.832;10.746;2024-03-02T01:01:47;4.20;99.90
8633;DHT22;4354;49.832;10.746;2024-03-02T01:04:14;4.20;99.90
8633;DHT22;4354;49.832;10.746;2024-03-02T01:06:42;4.20;99.90
8633;DHT22;4354;49.832;10.746;2024-03-02T01:09:09;4.20;99.90
8633;DHT22;4354;49.832;10.746;2024-03-02T01:11:36;4.30;99.90
8633;DHT22;4354;49.832;10.746;2024-03-02T01:14:03;4.30;99.90
8633;DHT22;4354;49.832;10.746;2024-03-02T01:16:30;4.30;99.90
8633;DHT22;4354;49.832;10.746;2024-03-02T01:18:57;4.30;99.90
8633;DHT22;4354;49.832;10.746;2024-03-02T01:21:24;4.30;99.90
8633;DHT22;4354;49.832;10.746;2024-03-02T01:23:51;4.30;99.90
8633;DHT22;4354;49.832;10.746;2024-03-02T01:26:18;4.30;99.90
8633;DHT22;4354;49.832;10.746;2024-03-02T01:28:44;4.40;99.90
8633;DHT22;4354;49.832;10.746;2024-03-02T01:31:11;4.40;99.90
8633;DHT22;4354;49.832;10.746;2024-03-02T01:33:38;4.40;99.90
8633;DHT22;4354;49.832;10.746;2024-03-02T01:36:05;4.40;99.90
8633;DHT22;4354;49.832;10.746;2024-03-02T01:38:32;4.40;99.90
8633;DHT22;4354;49.832;10.746;2024-03-02T01:40:59;4.40;99.90
8633;DHT22;4354;49.832;10.746;2024-03-02T01:43:26;4.30;99.90
8633;DHT22;4354;49.832;10.746;2024-03-02T01:45:52;4.30;99.90
8633;DHT22;4354;49.832;10.746;2024-03-02T01:48:20;4.30;99.90
8633;DHT22;4354;49.832;10.746;2024-03-02T01:50:47;4.30;99.90
8633;DHT22;4354;49.832;10.746;2024-03-02T01:53:14;4.20;99.90
8633;DHT22;4354;49.832;10.746;2024-03-02T01:55:40;4.30;99.90
8633;DHT22;4354;49.832;10.746;2024-03-02T01:58:07;4.30;99.90
8633;DHT22;4354;49.832;10.746;2024-03-02T02:00:34;4.20;99.90
8633;DHT22;4354;49.832;10.746;2024-03-02T02:03:01;4.50;99.90
8633;DHT22;4354;49.832;10.746;2024-03-02T02:05:28;4.30;99.90
8633;DHT22;4354;49.832;10.746;2024-03-02T02:07:55;4.30;99.90
8633;DHT22;4354;49.832;10.746;2024-03-02T02:10:22;4.30;99.90
8633;DHT22;4354;49.832;10.746;2024-03-02T02:12:49;4.30;99.90
8633;DHT22;4354;49.832;10.746;2024-03-02T02:17:52;4.40;99.90
8633;DHT22;4354;49.832;10.746;2024-03-02T02:20:19;4.40;99.90
8633;DHT22;4354;49.832;10.746;2024-03-02T02:22:57;4.40;99.90
8633;DHT22;4354;49.832;10.746;2024-03-02T02:25:24;4.40;99.90
8633;DHT22;4354;49.832;10.746;2024-03-02T02:27:51;4.50;99.90
8633;DHT22;4354;49.832;10.746;2024-03-02T02:30:22;4.50;99.90
8633;DHT22;4354;49.832;10.746;2024-03-02T02:32:49;4.50;99.90
8633;DHT22;4354;49.832;10.746;2024-03-02T02:35:16;4.50;99.90
8633;DHT22;4354;49.832;10.746;2024-03-02T02:37:44;4.50;99.90
8633;DHT22;4354;49.832;10.746;2024-03-02T02:40:12;4.50;99.90
8633;DHT22;4354;49.832;10.746;2024-03-02T02:42:39;4.50;99.90
8633;DHT22;4354;49.832;10.746;2024-03-02T02:45:07;4.60;99.90
8633;DHT22;4354;49.832;10.746;2024-03-02T02:47:34;4.60;99.90
8633;DHT22;4354;49.832;10.746;2024-03-02T02:50:07;4.60;99.90
8633;DHT22;4354;49.832;10.746;2024-03-02T02:52:34;4.70;99.90
8633;DHT22;4354;49.832;10.746;2024-03-02T02:55:04;4.70;99.90
8633;DHT22;4354;49.832;10.746;2024-03-02T02:57:34;4.80;99.90
8633;DHT22;4354;49.832;10.746;2024-03-02T03:00:10;4.80;99.90
8633;DHT22;4354;49.832;10.746;2024-03-02T03:02:38;4.90;99.90
8633;DHT22;4354;49.832;10.746;2024-03-02T03:05:06;4.90;99.90
8633;DHT22;4354;49.832;10.746;2024-03-02T03:07:33;4.90;99.90
8633;DHT22;4354;49.832;10.746;2024-03-02T03:10:03;5.00;99.90
8633;DHT22;4354;49.832;10.746;2024-03-02T03:12:31;4.90;99.90
8633;DHT22;4354;49.832;10.746;2024-03-02T03:15:00;4.90;99.90
8633;DHT22;4354;49.832;10.746;2024-03-02T03:17:27;4.80;99.90
8633;DHT22;4354;49.832;10.746;2024-03-02T03:19:54;4.80;99.90
8633;DHT22;4354;49.832;10.746;2024-03-02T03:22:21;4.70;99.90
8633;DHT22;4354;49.832;10.746;2024-03-02T03:24:48;4.60;99.90
8633;DHT22;4354;49.832;10.746;2024-03-02T03:27:15;4.50;99.90
8633;DHT22;4354;49.832;10.746;2024-03-02T03:29:43;4.40;99.90
8633;DHT22;4354;49.832;10.746;2024-03-02T03:32:09;4.30;99.90
8633;DHT22;4354;49.832;10.746;2024-03-02T03:34:36;5.10;99.90
8633;DHT22;4354;49.832;10.746;2024-03-02T03:37:03;5.00;99.90
8633;DHT22;4354;49.832;10.746;2024-03-02T03:39:30;4.60;99.90
8633;DHT22;4354;49.832;10.746;2024-03-02T03:41:57;4.00;99.90
8633;DHT22;4354;49.832;10.746;2024-03-02T03:44:24;4.00;99.90
8633;DHT22;4354;49.832;10.746;2024-03-02T03:46:51;3.90;99.90
8633;DHT22;4354;49.832;10.746;2024-03-02T03:49:18;3.90;99.90
8633;DHT22;4354;49.832;10.746;2024-03-02T03:51:44;3.90;99.90
8633;DHT22;4354;49.832;10.746;2024-03-02T03:54:11;3.80;99.90
8633;DHT22;4354;49.832;10.746;2024-03-02T03:56:38;3.80;99.90
8633;DHT22;4354;49.832;10.746;2024-03-02T03:59:05;4.40;99.90
8633;DHT22;4354;49.832;10.746;2024-03-02T04:01:32;4.30;99.90
8633;DHT22;4354;49.832;10.746;2024-03-02T04:03:59;4.00;99.90
8633;DHT22;4354;49.832;10.746;2024-03-02T04:06:26;4.20;99.90
8633;DHT22;4354;49.832;10.746;2024-03-02T04:08:53;3.80;99.90
8633;DHT22;4354;49.832;10.746;2024-03-02T04:11:20;4.00;99.90
8633;DHT22;4354;49.832;10.746;2024-03-02T04:13:47;4.20;99.90
8633;DHT22;4354;49.832;10.746;2024-03-02T04:16:13;3.60;99.90
8633;DHT22;4354;49.832;10.746;2024-03-02T04:18:40;3.50;99.90
8633;DHT22;4354;49.832;10.746;2024-03-02T04:21:08;4.30;99.90
8633;DHT22;4354;49.832;10.746;2024-03-02T04:23:35;3.70;99.90
8633;DHT22;4354;49.832;10.746;2024-03-02T04:26:02;3.70;99.90
8633;DHT22;4354;49.832;10.746;2024-03-02T04:28:28;3.80;99.90
8633;DHT22;4354;49.832;10.746;2024-03-02T04:30:55;4.30;99.90
8633;DHT22;4354;49.832;10.746;2024-03-02T04:33:22;3.90;99.90
8633;DHT22;4354;49.832;10.746;2024-03-02T04:35:49;3.90;99.90
8633;DHT22;4354;49.832;10.746;2024-03-02T04:38:15;4.00;99.90
8633;DHT22;4354;49.832;10.746;2024-03-02T04:40:42;4.00;99.90
8633;DHT22;4354;49.832;10.746;2024-03-02T04:43:09;4.00;99.90
8633;DHT22;4354;49.832;10.746;2024-03-02T04:45:38;4.10;99.90
8633;DHT22;4354;49.832;10.746;2024-03-02T04:48:05;4.10;99.90
8633;DHT22;4354;49.832;10.746;2024-03-02T04:50:32;4.20;99.90
8633;DHT22;4354;49.832;10.746;2024-03-02T04:52:59;4.30;99.90
8633;DHT22;4354;49.832;10.746;2024-03-02T04:55:26;4.40;99.90
8633;DHT22;4354;49.832;10.746;2024-03-02T04:57:56;4.50;99.90
8633;DHT22;4354;49.832;10.746;2024-03-02T05:00:23;4.50;99.90
8633;DHT22;4354;49.832;10.746;2024-03-02T05:02:50;4.50;99.90
8633;DHT22;4354;49.832;10.746;2024-03-02T05:05:17;4.50;99.90
8633;DHT22;4354;49.832;10.746;2024-03-02T05:07:44;4.50;99.90
8633;DHT22;4354;49.832;10.746;2024-03-02T05:10:11;4.50;99.90
8633;DHT22;4354;49.832;10.746;2024-03-02T05:12:38;4.50;99.90
8633;DHT22;4354;49.832;10.746;2024-03-02T05:15:15;4.50;99.90
8633;DHT22;4354;49.832;10.746;2024-03-02T05:17:42;4.50;99.90
8633;DHT22;4354;49.832;10.746;2024-03-02T05:20:12;4.50;99.90
8633;DHT22;4354;49.832;10.746;2024-03-02T05:22:39;4.50;99.90
8633;DHT22;4354;49.832;10.746;2024-03-02T05:25:07;4.40;99.90
8633;DHT22;4354;49.832;10.746;2024-03-02T05:27:34;4.40;99.90
8633;DHT22;4354;49.832;10.746;2024-03-02T05:30:01;4.40;99.90
8633;DHT22;4354;49.832;10.746;2024-03-02T05:32:28;4.40;99.90
8633;DHT22;4354;49.832;10.746;2024-03-02T05:34:55;4.40;99.90
8633;DHT22;4354;49.832;10.746;2024-03-02T05:37:21;4.50;99.90
8633;DHT22;4354;49.832;10.746;2024-03-02T05:39:49;4.60;99.90
8633;DHT22;4354;49.832;10.746;2024-03-02T05:42:16;4.70;99.90
8633;DHT22;4354;49.832;10.746;2024-03-02T05:44:45;4.80;99.90
8633;DHT22;4354;49.832;10.746;2024-03-02T05:47:12;5.70;99.90
8633;DHT22;4354;49.832;10.746;2024-03-02T05:49:39;5.40;99.90
8633;DHT22;4354;49.832;10.746;2024-03-02T05:52:07;6.30;99.90
8633;DHT22;4354;49.832;10.746;2024-03-02T05:54:33;5.90;99.90
8633;DHT22;4354;49.832;10.746;2024-03-02T05:57:00;5.30;99.90
8633;DHT22;4354;49.832;10.746;2024-03-02T05:59:43;5.40;99.90
8633;DHT22;4354;49.832;10.746;2024-03-02T06:02:10;5.40;99.90
8633;DHT22;4354;49.832;10.746;2024-03-02T06:04:37;5.50;99.90
8633;DHT22;4354;49.832;10.746;2024-03-02T06:07:04;5.90;99.90
8633;DHT22;4354;49.832;10.746;2024-03-02T06:09:31;5.90;99.90
8633;DHT22;4354;49.832;10.746;2024-03-02T06:11:59;5.50;99.90
8633;DHT22;4354;49.832;10.746;2024-03-02T06:14:26;6.40;99.90
8633;DHT22;4354;49.832;10.746;2024-03-02T06:16:52;6.10;99.90
8633;DHT22;4354;49.832;10.746;2024-03-02T06:19:19;5.70;99.90
8633;DHT22;4354;49.832;10.746;2024-03-02T06:21:46;5.70;99.90
8633;DHT22;4354;49.832;10.746;2024-03-02T06:24:13;5.80;99.90
8633;DHT22;4354;49.832;10.746;2024-03-02T06:26:40;5.90;99.90
8633;DHT22;4354;49.832;10.746;2024-03-02T06:29:06;5.90;99.90
8633;DHT22;4354;49.832;10.746;2024-03-02T06:31:34;6.00;99.90
8633;DHT22;4354;49.832;10.746;2024-03-02T06:34:03;6.10;99.90
8633;DHT22;4354;49.832;10.746;2024-03-02T07:54:49;8.50;1.00
8633;DHT22;4354;49.832;10.746;2024-03-02T07:57:16;8.60;1.00
8633;DHT22;4354;49.832;10.746;2024-03-02T07:59:43;8.50;99.90
8633;DHT22;4354;49.832;10.746;2024-03-02T08:02:10;8.50;99.90
8633;DHT22;4354;49.832;10.746;2024-03-02T08:04:37;8.60;99.90
8633;DHT22;4354;49.832;10.746;2024-03-02T08:07:04;8.60;4.20
8633;DHT22;4354;49.832;10.746;2024-03-02T08:09:31;8.50;99.90
8633;DHT22;4354;49.832;10.746;2024-03-02T08:11:58;8.60;1.00
8633;DHT22;4354;49.832;10.746;2024-03-02T08:14:25;8.70;99.90
8633;DHT22;4354;49.832;10.746;2024-03-02T08:16:51;8.80;99.90
8633;DHT22;4354;49.832;10.746;2024-03-02T08:19:20;9.10;1.00
8633;DHT22;4354;49.832;10.746;2024-03-02T08:21:47;9.70;74.60
8633;DHT22;4354;49.832;10.746;2024-03-02T08:24:14;9.20;99.90
8633;DHT22;4354;49.832;10.746;2024-03-02T08:26:41;9.70;99.90
8633;DHT22;4354;49.832;10.746;2024-03-02T08:29:08;9.90;1.00
8633;DHT22;4354;49.832;10.746;2024-03-02T08:31:35;10.60;1.00
8633;DHT22;4354;49.832;10.746;2024-03-02T08:34:05;11.40;1.00
8633;DHT22;4354;49.832;10.746;2024-03-02T08:36:32;12.80;99.90
8633;DHT22;4354;49.832;10.746;2024-03-02T08:38:58;13.10;1.00
8633;DHT22;4354;49.832;10.746;2024-03-02T08:41:25;14.30;1.00
8633;DHT22;4354;49.832;10.746;2024-03-02T08:43:52;15.00;1.00
8633;DHT22;4354;49.832;10.746;2024-03-02T08:46:19;15.40;1.00
8633;DHT22;4354;49.832;10.746;2024-03-02T08:48:46;15.00;1.00
8633;DHT22;4354;49.832;10.746;2024-03-02T08:51:12;14.70;1.00
8633;DHT22;4354;49.832;10.746;2024-03-02T08:53:39;15.10;1.00
8633;DHT22;4354;49.832;10.746;2024-03-02T08:56:06;15.10;1.00
8633;DHT22;4354;49.832;10.746;2024-03-02T08:58:33;15.10;1.00
8633;DHT22;4354;49.832;10.746;2024-03-02T09:01:00;15.20;1.00
8633;DHT22;4354;49.832;10.746;2024-03-02T09:03:27;13.90;1.00
8633;DHT22;4354;49.832;10.746;2024-03-02T09:05:53;13.70;1.00
8633;DHT22;4354;49.832;10.746;2024-03-02T09:08:20;13.50;1.00
8633;DHT22;4354;49.832;10.746;2024-03-02T09:10:47;13.20;1.00
8633;DHT22;4354;49.832;10.746;2024-03-02T09:13:14;13.30;1.00
8633;DHT22;4354;49.832;10.746;2024-03-02T09:15:41;13.30;1.00
8633;DHT22;4354;49.832;10.746;2024-03-02T09:18:10;12.90;1.00
8633;DHT22;4354;49.832;10.746;2024-03-02T09:20:37;13.00;1.00
8633;DHT22;4354;49.832;10.746;2024-03-02T09:23:04;13.70;1.00
8633;DHT22;4354;49.832;10.746;2024-03-02T09:33:36;13.00;1.00
8633;DHT22;4354;49.832;10.746;2024-03-02T09:36:04;13.90;1.00
8633;DHT22;4354;49.832;10.746;2024-03-02T09:38:34;13.10;1.00
8633;DHT22;4354;49.832;10.746;2024-03-02T09:41:01;13.70;99.90
8633;DHT22;4354;49.832;10.746;2024-03-02T09:43:37;14.00;1.00
8633;DHT22;4354;49.832;10.746;2024-03-02T09:46:04;14.30;1.00
8633;DHT22;4354;49.832;10.746;2024-03-02T09:48:31;13.80;99.90
8633;DHT22;4354;49.832;10.746;2024-03-02T09:50:59;14.50;99.90
8633;DHT22;4354;49.832;10.746;2024-03-02T09:53:31;14.30;1.00
8633;DHT22;4354;49.832;10.746;2024-03-02T09:56:01;13.80;1.00
8633;DHT22;4354;49.832;10.746;2024-03-02T09:58:29;14.10;1.00
8633;DHT22;4354;49.832;10.746;2024-03-02T10:00:56;13.90;1.00
8633;DHT22;4354;49.832;10.746;2024-03-02T10:03:23;14.30;1.00
8633;DHT22;4354;49.832;10.746;2024-03-02T10:05:53;14.10;1.00
8633;DHT22;4354;49.832;10.746;2024-03-02T10:08:20;14.10;99.90
8633;DHT22;4354;49.832;10.746;2024-03-02T10:10:47;14.30;1.00
8633;DHT22;4354;49.832;10.746;2024-03-02T10:13:14;14.40;99.90
8633;DHT22;4354;49.832;10.746;2024-03-02T10:15:41;14.30;99.90
8633;DHT22;4354;49.832;10.746;2024-03-02T10:18:12;14.10;99.90
8633;DHT22;4354;49.832;10.746;2024-03-02T10:20:40;13.90;1.00
8633;DHT22;4354;49.832;10.746;2024-03-02T10:23:15;14.00;99.90
8633;DHT22;4354;49.832;10.746;2024-03-02T10:25:43;14.30;99.90
8633;DHT22;4354;49.832;10.746;2024-03-02T10:28:23;14.20;99.90
8633;DHT22;4354;49.832;10.746;2024-03-02T10:30:50;14.40;99.90
8633;DHT22;4354;49.832;10.746;2024-03-02T10:33:19;14.30;99.90
8633;DHT22;4354;49.832;10.746;2024-03-02T10:35:48;14.40;99.90
8633;DHT22;4354;49.832;10.746;2024-03-02T10:38:17;14.50;99.90
8633;DHT22;4354;49.832;10.746;2024-03-02T10:40:47;14.10;99.90
8633;DHT22;4354;49.832;10.746;2024-03-02T10:43:15;14.10;99.90
8633;DHT22;4354;49.832;10.746;2024-03-02T10:45:44;14.60;99.90
8633;DHT22;4354;49.832;10.746;2024-03-02T10:48:12;14.50;99.90
8633;DHT22;4354;49.832;10.746;2024-03-02T10:50:39;14.70;99.90
8633;DHT22;4354;49.832;10.746;2024-03-02T10:53:06;14.40;99.90
8633;DHT22;4354;49.832;10.746;2024-03-02T10:55:33;14.40;99.90
8633;DHT22;4354;49.832;10.746;2024-03-02T10:58:00;14.50;99.90
8633;DHT22;4354;49.832;10.746;2024-03-02T11:00:33;14.80;99.90
8633;DHT22;4354;49.832;10.746;2024-03-02T11:03:06;15.00;99.90
8633;DHT22;4354;49.832;10.746;2024-03-02T11:05:41;15.70;99.90
8633;DHT22;4354;49.832;10.746;2024-03-02T11:08:14;15.70;99.90
8633;DHT22;4354;49.832;10.746;2024-03-02T11:10:58;16.00;99.90
8633;DHT22;4354;49.832;10.746;2024-03-02T11:13:33;15.80;99.90
8633;DHT22;4354;49.832;10.746;2024-03-02T11:16:09;15.80;99.90
8633;DHT22;4354;49.832;10.746;2024-03-02T11:18:37;15.80;99.90
8633;DHT22;4354;49.832;10.746;2024-03-02T11:21:05;16.10;99.90
8633;DHT22;4354;49.832;10.746;2024-03-02T11:23:33;15.90;99.90
8633;DHT22;4354;49.832;10.746;2024-03-02T11:26:19;16.10;99.90
8633;DHT22;4354;49.832;10.746;2024-03-02T11:28:46;15.70;99.90
8633;DHT22;4354;49.832;10.746;2024-03-02T11:31:13;16.00;99.90
8633;DHT22;4354;49.832;10.746;2024-03-02T11:33:40;16.10;99.90
8633;DHT22;4354;49.832;10.746;2024-03-02T11:36:08;16.10;99.90
8633;DHT22;4354;49.832;10.746;2024-03-02T11:38:38;16.10;99.90
8633;DHT22;4354;49.832;10.746;2024-03-02T11:41:08;16.00;99.90
8633;DHT22;4354;49.832;10.746;2024-03-02T11:43:39;16.30;99.90
8633;DHT22;4354;49.832;10.746;2024-03-02T11:46:08;16.30;99.90
8633;DHT22;4354;49.832;10.746;2024-03-02T11:48:36;16.10;99.90
8633;DHT22;4354;49.832;10.746;2024-03-02T11:51:04;16.50;99.90
8633;DHT22;4354;49.832;10.746;2024-03-02T11:53:31;16.30;99.90
8633;DHT22;4354;49.832;10.746;2024-03-02T11:56:02;16.90;99.90
8633;DHT22;4354;49.832;10.746;2024-03-02T11:58:29;16.60;99.90
8633;DHT22;4354;49.832;10.746;2024-03-02T12:00:57;16.90;99.90
8633;DHT22;4354;49.832;10.746;2024-03-02T12:03:25;16.80;99.90
8633;DHT22;4354;49.832;10.746;2024-03-02T12:05:54;17.60;99.90
8633;DHT22;4354;49.832;10.746;2024-03-02T12:08:21;17.40;99.90
8633;DHT22;4354;49.832;10.746;2024-03-02T12:11:02;16.80;99.90
8633;DHT22;4354;49.832;10.746;2024-03-02T12:13:30;16.60;99.90
8633;DHT22;4354;49.832;10.746;2024-03-02T12:15:58;17.40;99.90
8633;DHT22;4354;49.832;10.746;2024-03-02T12:18:25;17.10;99.90
8633;DHT22;4354;49.832;10.746;2024-03-02T12:20:53;17.00;99.90
8633;DHT22;4354;49.832;10.746;2024-03-02T12:23:45;17.10;99.90
8633;DHT22;4354;49.832;10.746;2024-03-02T12:26:12;17.50;99.90
8633;DHT22;4354;49.832;10.746;2024-03-02T12:28:39;17.30;99.90
8633;DHT22;4354;49.832;10.746;2024-03-02T12:31:06;17.30;99.90
8633;DHT22;4354;49.832;10.746;2024-03-02T12:33:34;17.90;99.90
8633;DHT22;4354;49.832;10.746;2024-03-02T12:36:01;17.00;99.90
8633;DHT22;4354;49.832;10.746;2024-03-02T12:38:34;17.00;99.90
8633;DHT22;4354;49.832;10.746;2024-03-02T12:41:01;17.80;99.90
8633;DHT22;4354;49.832;10.746;2024-03-02T12:43:31;17.30;99.90
8633;DHT22;4354;49.832;10.746;2024-03-02T12:45:58;17.20;99.90
8633;DHT22;4354;49.832;10.746;2024-03-02T12:48:26;17.10;99.90
8633;DHT22;4354;49.832;10.746;2024-03-02T12:50:54;17.00;99.90
8633;DHT22;4354;49.832;10.746;2024-03-02T12:53:22;17.00;99.90
8633;DHT22;4354;49.832;10.746;2024-03-02T12:55:49;17.00;99.90
8633;DHT22;4354;49.832;10.746;2024-03-02T12:58:20;16.80;99.90
8633;DHT22;4354;49.832;10.746;2024-03-02T13:00:50;16.80;99.90
8633;DHT22;4354;49.832;10.746;2024-03-02T13:03:18;17.60;99.90
8633;DHT22;4354;49.832;10.746;2024-03-02T13:05:51;17.10;99.90
8633;DHT22;4354;49.832;10.746;2024-03-02T13:08:19;17.00;99.90
8633;DHT22;4354;49.832;10.746;2024-03-02T13:10:46;16.80;99.90
8633;DHT22;4354;49.832;10.746;2024-03-02T13:13:13;17.20;99.90
8633;DHT22;4354;49.832;10.746;2024-03-02T13:15:41;16.30;99.90
8633;DHT22;4354;49.832;10.746;2024-03-02T13:18:09;16.00;99.90
8633;DHT22;4354;49.832;10.746;2024-03-02T13:20:35;16.10;99.90
8633;DHT22;4354;49.832;10.746;2024-03-02T13:23:03;15.90;99.90
8633;DHT22;4354;49.832;10.746;2024-03-02T13:25:29;16.10;99.90
8633;DHT22;4354;49.832;10.746;2024-03-02T13:27:59;15.90;99.90
8633;DHT22;4354;49.832;10.746;2024-03-02T13:30:26;15.40;99.90
8633;DHT22;4354;49.832;10.746;2024-03-02T13:32:53;15.70;99.90
8633;DHT22;4354;49.832;10.746;2024-03-02T13:35:20;15.40;99.90
8633;DHT22;4354;49.832;10.746;2024-03-02T13:37:47;15.20;99.90
8633;DHT22;4354;49.832;10.746;2024-03-02T13:40:14;15.20;99.90
8633;DHT22;4354;49.832;10.746;2024-03-02T13:42:44;15.30;99.90
8633;DHT22;4354;49.832;10.746;2024-03-02T13:45:11;15.30;99.90
8633;DHT22;4354;49.832;10.746;2024-03-02T13:47:38;15.70;99.90
8633;DHT22;4354;49.832;10.746;2024-03-02T13:50:05;15.60;99.90
8633;DHT22;4354;49.832;10.746;2024-03-02T13:52:33;15.70;99.90
8633;DHT22;4354;49.832;10.746;2024-03-02T13:54:59;15.60;99.90
8633;DHT22;4354;49.832;10.746;2024-03-02T13:57:26;16.20;99.90
8633;DHT22;4354;49.832;10.746;2024-03-02T13:59:54;16.00;99.90
8633;DHT22;4354;49.832;10.746;2024-03-02T14:02:21;15.70;99.90
8633;DHT22;4354;49.832;10.746;2024-03-02T14:04:48;15.60;99.90
8633;DHT22;4354;49.832;10.746;2024-03-02T14:07:16;15.80;99.90
8633;DHT22;4354;49.832;10.746;2024-03-02T14:09:43;15.90;99.90
8633;DHT22;4354;49.832;10.746;2024-03-02T14:12:10;16.00;99.90
8633;DHT22;4354;49.832;10.746;2024-03-02T14:14:40;16.10;99.90
8633;DHT22;4354;49.832;10.746;2024-03-02T14:17:06;15.70;99.90
8633;DHT22;4354;49.832;10.746;2024-03-02T14:19:38;15.70;99.90
8633;DHT22;4354;49.832;10.746;2024-03-02T14:22:05;15.80;99.90
8633;DHT22;4354;49.832;10.746;2024-03-02T14:24:32;15.90;99.90
8633;DHT22;4354;49.832;10.746;2024-03-02T14:26:59;16.10;99.90
8633;DHT22;4354;49.832;10.746;2024-03-02T14:29:43;15.90;99.90
8633;DHT22;4354;49.832;10.746;2024-03-02T14:32:10;15.80;99.90
8633;DHT22;4354;49.832;10.746;2024-03-02T14:34:37;15.90;99.90
8633;DHT22;4354;49.832;10.746;2024-03-02T14:37:06;15.70;99.90
8633;DHT22;4354;49.832;10.746;2024-03-02T14:39:33;15.60;99.90
8633;DHT22;4354;49.832;10.746;2024-03-02T14:42:01;15.40;99.90
8633;DHT22;4354;49.832;10.746;2024-03-02T14:44:28;15.40;99.90
8633;DHT22;4354;49.832;10.746;2024-03-02T14:46:55;15.60;99.90
8633;DHT22;4354;49.832;10.746;2024-03-02T14:49:24;15.30;99.90
8633;DHT22;4354;49.832;10.746;2024-03-02T14:51:51;15.20;99.90
8633;DHT22;4354;49.832;10.746;2024-03-02T14:54:18;15.70;99.90
8633;DHT22;4354;49.832;10.746;2024-03-02T14:56:44;14.90;99.90
8633;DHT22;4354;49.832;10.746;2024-03-02T14:59:11;15.00;99.90
8633;DHT22;4354;49.832;10.746;2024-03-02T15:01:38;15.00;99.90
8633;DHT22;4354;49.832;10.746;2024-03-02T15:04:05;15.10;99.90
8633;DHT22;4354;49.832;10.746;2024-03-02T15:06:32;14.90;99.90
8633;DHT22;4354;49.832;10.746;2024-03-02T15:08:59;14.90;99.90
8633;DHT22;4354;49.832;10.746;2024-03-02T15:11:28;14.70;99.90
8633;DHT22;4354;49.832;10.746;2024-03-02T15:13:55;14.60;99.90
8633;DHT22;4354;49.832;10.746;2024-03-02T15:16:22;14.40;99.90
8633;DHT22;4354;49.832;10.746;2024-03-02T15:18:48;14.40;99.90
8633;DHT22;4354;49.832;10.746;2024-03-02T15:21:15;14.50;99.90
8633;DHT22;4354;49.832;10.746;2024-03-02T15:23:44;14.10;99.90
8633;DHT22;4354;49.832;10.746;2024-03-02T15:26:11;14.10;99.90
8633;DHT22;4354;49.832;10.746;2024-03-02T15:28:38;14.10;99.90
8633;DHT22;4354;49.832;10.746;2024-03-02T15:31:05;14.00;99.90
8633;DHT22;4354;49.832;10.746;2024-03-02T15:33:32;14.10;99.90
8633;DHT22;4354;49.832;10.746;2024-03-02T15:36:01;13.90;99.90
8633;DHT22;4354;49.832;10.746;2024-03-02T15:38:28;14.10;99.90
8633;DHT22;4354;49.832;10.746;2024-03-02T15:41:01;14.00;99.90
8633;DHT22;4354;49.832;10.746;2024-03-02T15:43:28;13.60;99.90
8633;DHT22;4354;49.832;10.746;2024-03-02T15:45:57;13.50;99.90
8633;DHT22;4354;49.832;10.746;2024-03-02T15:48:25;13.50;99.90
8633;DHT22;4354;49.832;10.746;2024-03-02T15:50:52;13.40;99.90
8633;DHT22;4354;49.832;10.746;2024-03-02T15:53:19;13.30;99.90
8633;DHT22;4354;49.832;10.746;2024-03-02T15:55:46;13.30;99.90
8633;DHT22;4354;49.832;10.746;2024-03-02T15:58:13;13.20;99.90
8633;DHT22;4354;49.832;10.746;2024-03-02T16:00:40;13.10;99.90
8633;DHT22;4354;49.832;10.746;2024-03-02T16:03:07;13.20;99.90
8633;DHT22;4354;49.832;10.746;2024-03-02T16:05:34;13.00;99.90
8633;DHT22;4354;49.832;10.746;2024-03-02T16:08:00;12.90;99.90
8633;DHT22;4354;49.832;10.746;2024-03-02T16:10:27;12.90;99.90
8633;DHT22;4354;49.832;10.746;2024-03-02T16:12:54;12.80;99.90
8633;DHT22;4354;49.832;10.746;2024-03-02T16:15:27;12.70;99.90
8633;DHT22;4354;49.832;10.746;2024-03-02T16:17:55;12.50;99.90
8633;DHT22;4354;49.832;10.746;2024-03-02T16:20:22;12.30;99.90
8633;DHT22;4354;49.832;10.746;2024-03-02T16:22:49;12.00;99.90
8633;DHT22;4354;49.832;10.746;2024-03-02T16:25:15;11.90;99.90
8633;DHT22;4354;49.832;10.746;2024-03-02T16:27:42;11.80;99.90
8633;DHT22;4354;49.832;10.746;2024-03-02T16:30:10;11.70;99.90
8633;DHT22;4354;49.832;10.746;2024-03-02T16:32:37;11.50;99.90
8633;DHT22;4354;49.832;10.746;2024-03-02T16:35:04;11.90;99.90
8633;DHT22;4354;49.832;10.746;2024-03-02T16:37:32;11.20;1.00
8633;DHT22;4354;49.832;10.746;2024-03-02T16:39:59;11.10;1.00
8633;DHT22;4354;49.832;10.746;2024-03-02T16:42:26;10.90;1.00
8633;DHT22;4354;49.832;10.746;2024-03-02T16:44:53;10.80;1.00
8633;DHT22;4354;49.832;10.746;2024-03-02T16:47:24;10.70;1.00
8633;DHT22;4354;49.832;10.746;2024-03-02T16:49:54;10.60;1.00
8633;DHT22;4354;49.832;10.746;2024-03-02T16:52:25;10.50;1.00
8633;DHT22;4354;49.832;10.746;2024-03-02T16:54:54;10.40;18.70
8633;DHT22;4354;49.832;10.746;2024-03-02T16:57:21;10.30;99.90
8633;DHT22;4354;49.832;10.746;2024-03-02T16:59:48;10.10;99.90
8633;DHT22;4354;49.832;10.746;2024-03-02T17:02:15;10.00;1.00
8633;DHT22;4354;49.832;10.746;2024-03-02T17:04:42;10.20;1.00
8633;DHT22;4354;49.832;10.746;2024-03-02T17:07:09;9.70;99.90
8633;DHT22;4354;49.832;10.746;2024-03-02T17:09:36;9.60;1.00
8633;DHT22;4354;49.832;10.746;2024-03-02T17:12:03;9.50;1.00
8633;DHT22;4354;49.832;10.746;2024-03-02T17:14:30;9.40;41.70
8633;DHT22;4354;49.832;10.746;2024-03-02T17:16:57;9.30;99.90
8633;DHT22;4354;49.832;10.746;2024-03-02T17:19:24;9.20;1.00
8633;DHT22;4354;49.832;10.746;2024-03-02T17:21:51;9.00;18.20
8633;DHT22;4354;49.832;10.746;2024-03-02T17:24:17;8.90;1.00
8633;DHT22;4354;49.832;10.746;2024-03-02T17:26:44;8.70;99.90
8633;DHT22;4354;49.832;10.746;2024-03-02T17:29:11;8.80;94.50